• Join FlightAware (Why Join?)
  • Login
  • US Flag 
08:05PM EDT


 

Airport Tracker/Info


-or-


 

Live Flight TrackerFlight Track Log ✈ AWE2690 ✈ 10-Sep-2013 ✈ KCLT - KIND

Flight Track Log - Related Links

Times and Time Zones

All times are in EDT time to prevent confusion due to time zone crossing. See the AWE2690 flight status page for this flight to view local times or setup timezone preferences in your user account.

Time Position Orientation Groundspeed Altitude Reporting Facility
EDT Latitude Longitude Course Direction KTS MPH feet Rate Location/Type
01:31PM 35.1869 -80.9511 13° North 177 204 1,400  Level Atlanta Center
01:32PM 35.1642 -80.9519 182° South 182 209 2,100 1,620 Climbing Atlanta Center
01:33PM 35.1192 -80.9917 216° Southwest 256 295 3,800 2,160 Climbing Atlanta Center
01:34PM 35.2875 -81.1601 52° Northeast  Level FlightAware Approximate
01:34PM 35.1069 -81.0936 262° West 274 315 6,800  Level Atlanta Center
01:34PM 35.1400 -81.1611 301° West 292 336 8,800 2,400 Climbing Atlanta Center
01:35PM 35.3609 -81.0448 52° Northeast  Level FlightAware Approximate
01:35PM 35.1506 -81.1708 323° Northwest 289 333 9,200  Level Atlanta Center
01:36PM 35.4500 -80.9569 13° North  Level FlightAware Approximate
01:36PM 35.2217 -81.1786 355° North 305 351 11,200  Level Atlanta Center
01:37PM 35.5661 -80.9228 13° North  Level FlightAware Approximate
01:37PM 35.3061 -81.1272 26° Northeast 320 368 12,900  Level Atlanta Center
01:38PM 35.3925 -81.0758 26° Northeast 339 390 14,200 1,620 Climbing Atlanta Center
01:39PM 35.4925 -81.0747 North 352 405 16,200 1,800 Climbing Atlanta Center
01:40PM 35.5878 -81.1300 335° Northwest 359 413 17,800 1,680 Climbing Atlanta Center
01:41PM 35.6939 -81.2106 328° Northwest 391 450 19,600 1,500 Climbing Atlanta Center
01:42PM 35.7833 -81.2844 326° Northwest 396 456 20,900 1,260 Climbing Atlanta Center
01:43PM 35.8767 -81.3606 327° Northwest 402 463 22,200 1,200 Climbing Atlanta Center
01:44PM 35.9456 -81.4533 313° West 402 463 23,400 1,140 Climbing Atlanta Center
01:45PM 36.0189 -81.5664 309° West 415 478 24,500 960 Climbing Atlanta Center
01:46PM 36.0961 -81.6797 310° West 431 496 25,400 960 Climbing Atlanta Center
01:47PM 36.1753 -81.7933 311° West 440 506 26,500 1,080 Climbing Atlanta Center
01:48PM 36.2569 -81.9275 307° West 445 512 27,600 1,020 Climbing Atlanta Center
01:49PM 36.3403 -82.0489 310° West 444 511 28,600 1,440 Climbing Atlanta Center
01:50PM 36.4194 -82.1683 309° West 449 517 30,500 1,440 Climbing Atlanta Center
01:51PM 36.4942 -82.2853 308° West 444 511 31,500 900 Climbing Atlanta Center
01:52PM 36.6125 -82.4625 310° West 442 509 32,900 540 Climbing Indianapolis Center
01:53PM 36.6922 -82.5856 309° West 452 520 33,000 480 Climbing Indianapolis Center
01:54PM 36.7731 -82.7100 309° West 460 529 33,900 480 Climbing Indianapolis Center
01:55PM 36.8586 -82.8411 309° West 462 532 34,000  Climbing Indianapolis Center
01:56PM 36.9400 -82.9658 309° West 466 536 34,000  Level Indianapolis Center
01:57PM 37.0194 -83.0911 308° West 451 519 34,000  Level Indianapolis Center
01:58PM 37.0983 -83.2136 309° West 450 518 34,000  Level Indianapolis Center
01:59PM 37.1778 -83.3386 309° West 455 524 34,000  Level Indianapolis Center
02:00PM 37.2708 -83.4858 308° West 463 533 34,000  Level Indianapolis Center
02:01PM 37.3517 -83.6133 309° West 464 534 34,000  Level Indianapolis Center
02:02PM 37.4317 -83.7392 309° West 461 531 34,000  Level Indianapolis Center
02:04PM 37.5094 -83.8653 308° West 456 525 34,000  Level Indianapolis Center
02:05PM 37.5867 -83.9900 308° West 452 520 34,000  Level Indianapolis Center
02:06PM 37.6625 -84.1117 308° West 442 509 34,000  Level Indianapolis Center
02:07PM 37.7517 -84.2550 308° West 444 511 34,000 -360 Level Indianapolis Center
02:08PM 37.8258 -84.3778 307° West 441 507 33,300 -1,020 Descending Indianapolis Center
02:09PM 37.9042 -84.5036 308° West 450 518 32,000 -1,260 Descending Indianapolis Center
02:10PM 37.9792 -84.6283 307° West 447 514 30,800 -1,200 Descending Indianapolis Center
02:11PM 38.0556 -84.7514 308° West 445 512 29,600 -1,140 Descending Indianapolis Center
02:12PM 38.1317 -84.8764 308° West 447 514 28,500 -840 Descending Indianapolis Center
02:13PM 38.2072 -84.9972 309° West 437 503 28,000 -300 Descending Indianapolis Center
02:14PM 38.2922 -85.1400 307° West 433 498 28,000 -600 Level Indianapolis Center
02:15PM 38.3642 -85.2586 308° West 435 501 26,800 -1,020 Descending Indianapolis Center
02:16PM 38.4361 -85.3794 307° West 429 494 26,000 -600 Descending Indianapolis Center
02:17PM 38.5078 -85.5000 307° West 426 490 25,600 -540 Descending Indianapolis Center
02:18PM 38.5803 -85.6156 309° West 419 482 25,000 -1,260 Descending Indianapolis Center
02:19PM 38.7019 -85.6569 345° North 416 479 23,100 -2,220 Descending Indianapolis Center
02:20PM 38.8144 -85.6772 352° North 411 473 20,500 -2,580 Descending Indianapolis Center
02:21PM 38.9250 -85.6964 352° North 404 465 17,900 -2,460 Descending Indianapolis Center
02:22PM 39.0314 -85.7156 352° North 393 452 15,500 -1,860 Descending Indianapolis Center
02:23PM 39.1336 -85.7331 352° North 380 437 14,100 -720 Descending Indianapolis Center
02:24PM 39.2297 -85.7517 351° North 358 412 14,100 -300 Level Indianapolis Center
02:25PM 39.3325 -85.7908 344° North 324 373 13,600 -1,200 Descending Indianapolis Center
02:26PM 39.4067 -85.8469 330° Northwest 313 360 11,700 -1,800 Descending Indianapolis Center
02:27PM 39.4844 -85.8900 337° Northwest 308 354 10,000 -1,680 Descending Indianapolis Center
02:28PM 39.5381 -85.9672 312° West 293 337 8,300 -1,440 Descending Indianapolis Center
02:29PM 39.5911 -86.0431 312° West 286 329 7,100 -660 Descending Indianapolis Center
02:30PM 39.6425 -86.1167 312° West 281 323 7,000 -540 Descending Indianapolis Center
02:31PM 39.7167 -86.1214 357° North 274 315 6,000 -1,320 Descending Indianapolis Center
02:32PM 39.7753 -86.0642 37° Northeast 270 311 4,400 -1,500 Descending Indianapolis Center
02:33PM 39.8372 -86.0736 353° North 265 305 3,000 -840 Descending Indianapolis Center
02:34PM 39.8422 -86.1442 275° West 241 277 2,700 -180 Descending Indianapolis Center
02:35PM 39.8017 -86.2006 227° Southwest 223 257 2,700 -480 Level Indianapolis Center
02:36PM 39.7631 -86.2489 224° Southwest 176 203 1,800 -780 Descending Indianapolis Center
02:37PM 39.7389 -86.2797 224° Southwest 158 182 1,200 -540 Descending Indianapolis Center
02:38PM 39.7167 -86.3083 225° Southwest 124 143 800 -240 Descending Indianapolis Center
02:40PM 39.7153 -86.3061 129° Southeast 49 56 800  Level Indianapolis Center
02:41PM 39.7194 -86.3003 47° Northeast 31 36 800  Level Indianapolis Center
02:42PM 39.7200 -86.2967 79° East 19 22 800  Level Indianapolis Center
02:43PM 39.7183 -86.2942 131° Southeast 13 15 800  Level Indianapolis Center
02:44PM 39.7167 -86.2964 226° Southwest 8 9 800  Level Indianapolis Center
02:45PM 39.7169 -86.2964 360° North 4 5 800  Level Indianapolis Center
02:46PM 39.7172 -86.2967 322° Northwest 2 2 800  Level Indianapolis Center